Lynch, Kentucky
Current Conditions -  °F | °C
As of 9:15 AM on Monday 22 Dec 2014 (Local Time) from KLNP Reporting Station
Overcast Overcast  
Wind Chill: 40°   Ceiling: 2800
Heat Index: 43°   Visibility: 10mi
Dew Point: 36°   Wind: 5mph
Humidity: 76%   Direction: 150°SSE
Pressure: 30.04"   Gusts: NA
Location:  36.97°N, 82.92°W
Report Text: KLNP 221415Z AUTO 15004KT 10SM BKN028 BKN035 OVC060 06/02 A3004 RMK AO2
Loading
Personal Weather Stations






























Interactive Weather Map New forecast layout! Learn more

10-Day Weather Forecast

Advertisements
Track Severe Weather on mobile